sensor_id;sensor_type;location;lat;lon;timestamp;P1;durP1;ratioP1;P2;durP2;ratioP2
14167;SDS011;7163;50.626;12.922;2023-04-07T00:03:42;23.83;;;14.63;;
14167;SDS011;7163;50.626;12.922;2023-04-07T00:08:43;21.17;;;14.00;;
14167;SDS011;7163;50.626;12.922;2023-04-07T00:13:43;36.67;;;18.83;;
14167;SDS011;7163;50.626;12.922;2023-04-07T00:18:44;36.20;;;19.17;;
14167;SDS011;7163;50.626;12.922;2023-04-07T00:23:44;36.07;;;18.10;;
14167;SDS011;7163;50.626;12.922;2023-04-07T00:28:45;21.67;;;12.90;;
14167;SDS011;7163;50.626;12.922;2023-04-07T00:33:47;19.17;;;12.70;;
14167;SDS011;7163;50.626;12.922;2023-04-07T00:38:48;22.63;;;14.13;;
14167;SDS011;7163;50.626;12.922;2023-04-07T00:43:49;24.53;;;14.90;;
14167;SDS011;7163;50.626;12.922;2023-04-07T00:48:50;20.87;;;12.67;;
14167;SDS011;7163;50.626;12.922;2023-04-07T00:53:50;23.60;;;14.47;;
14167;SDS011;7163;50.626;12.922;2023-04-07T00:58:51;18.63;;;12.50;;
14167;SDS011;7163;50.626;12.922;2023-04-07T01:04:04;20.30;;;11.83;;
14167;SDS011;7163;50.626;12.922;2023-04-07T01:09:14;18.90;;;11.27;;
14167;SDS011;7163;50.626;12.922;2023-04-07T01:14:18;17.60;;;11.37;;
14167;SDS011;7163;50.626;12.922;2023-04-07T01:19:38;16.57;;;11.13;;
14167;SDS011;7163;50.626;12.922;2023-04-07T01:30:06;15.83;;;10.43;;
14167;SDS011;7163;50.626;12.922;2023-04-07T01:35:11;19.60;;;11.57;;
14167;SDS011;7163;50.626;12.922;2023-04-07T01:40:12;16.97;;;10.13;;
14167;SDS011;7163;50.626;12.922;2023-04-07T01:45:13;16.33;;;10.17;;
14167;SDS011;7163;50.626;12.922;2023-04-07T01:50:15;16.83;;;10.07;;
14167;SDS011;7163;50.626;12.922;2023-04-07T01:55:16;15.87;;;10.67;;
14167;SDS011;7163;50.626;12.922;2023-04-07T02:00:16;15.23;;;10.20;;
14167;SDS011;7163;50.626;12.922;2023-04-07T02:05:18;17.80;;;10.33;;
14167;SDS011;7163;50.626;12.922;2023-04-07T02:10:20;14.77;;;9.40;;
14167;SDS011;7163;50.626;12.922;2023-04-07T02:15:22;15.23;;;10.03;;
14167;SDS011;7163;50.626;12.922;2023-04-07T02:20:23;13.50;;;9.43;;
14167;SDS011;7163;50.626;12.922;2023-04-07T02:25:27;20.63;;;11.33;;
14167;SDS011;7163;50.626;12.922;2023-04-07T02:30:28;18.00;;;10.80;;
14167;SDS011;7163;50.626;12.922;2023-04-07T02:35:29;20.17;;;10.87;;
14167;SDS011;7163;50.626;12.922;2023-04-07T02:40:29;17.97;;;10.77;;
14167;SDS011;7163;50.626;12.922;2023-04-07T02:45:30;18.97;;;10.37;;
14167;SDS011;7163;50.626;12.922;2023-04-07T02:50:30;20.60;;;10.57;;
14167;SDS011;7163;50.626;12.922;2023-04-07T02:55:31;15.83;;;9.80;;
14167;SDS011;7163;50.626;12.922;2023-04-07T03:00:32;15.87;;;9.53;;
14167;SDS011;7163;50.626;12.922;2023-04-07T03:05:33;14.90;;;9.63;;
14167;SDS011;7163;50.626;12.922;2023-04-07T03:10:33;13.23;;;8.67;;
14167;SDS011;7163;50.626;12.922;2023-04-07T03:15:35;13.47;;;9.00;;
14167;SDS011;7163;50.626;12.922;2023-04-07T03:20:36;13.70;;;8.40;;
14167;SDS011;7163;50.626;12.922;2023-04-07T03:25:37;15.40;;;9.27;;
14167;SDS011;7163;50.626;12.922;2023-04-07T03:30:37;15.77;;;9.43;;
14167;SDS011;7163;50.626;12.922;2023-04-07T03:35:37;12.77;;;7.83;;
14167;SDS011;7163;50.626;12.922;2023-04-07T03:40:38;13.90;;;8.70;;
14167;SDS011;7163;50.626;12.922;2023-04-07T03:45:38;13.37;;;8.23;;
14167;SDS011;7163;50.626;12.922;2023-04-07T03:50:39;18.20;;;9.50;;
14167;SDS011;7163;50.626;12.922;2023-04-07T03:55:40;14.97;;;10.10;;
14167;SDS011;7163;50.626;12.922;2023-04-07T04:00:40;15.13;;;8.87;;
14167;SDS011;7163;50.626;12.922;2023-04-07T04:05:41;15.33;;;8.80;;
14167;SDS011;7163;50.626;12.922;2023-04-07T04:10:41;13.97;;;8.47;;
14167;SDS011;7163;50.626;12.922;2023-04-07T04:15:42;16.30;;;10.07;;
14167;SDS011;7163;50.626;12.922;2023-04-07T04:20:43;16.57;;;10.27;;
14167;SDS011;7163;50.626;12.922;2023-04-07T04:25:43;15.90;;;9.53;;
14167;SDS011;7163;50.626;12.922;2023-04-07T04:30:43;17.97;;;10.03;;
14167;SDS011;7163;50.626;12.922;2023-04-07T04:35:44;26.83;;;12.87;;
14167;SDS011;7163;50.626;12.922;2023-04-07T04:40:45;36.93;;;18.93;;
14167;SDS011;7163;50.626;12.922;2023-04-07T04:45:46;39.80;;;21.03;;
14167;SDS011;7163;50.626;12.922;2023-04-07T04:50:46;25.53;;;13.63;;
14167;SDS011;7163;50.626;12.922;2023-04-07T04:55:47;35.17;;;17.37;;
14167;SDS011;7163;50.626;12.922;2023-04-07T05:00:53;29.07;;;15.53;;
14167;SDS011;7163;50.626;12.922;2023-04-07T05:05:58;27.17;;;15.70;;
14167;SDS011;7163;50.626;12.922;2023-04-07T05:10:59;25.23;;;13.20;;
14167;SDS011;7163;50.626;12.922;2023-04-07T05:16:00;35.70;;;19.53;;
14167;SDS011;7163;50.626;12.922;2023-04-07T05:21:00;57.23;;;33.63;;
14167;SDS011;7163;50.626;12.922;2023-04-07T05:26:01;47.77;;;30.80;;
14167;SDS011;7163;50.626;12.922;2023-04-07T05:31:01;33.47;;;20.10;;
14167;SDS011;7163;50.626;12.922;2023-04-07T05:36:02;28.47;;;16.33;;
14167;SDS011;7163;50.626;12.922;2023-04-07T05:41:02;34.47;;;16.07;;
14167;SDS011;7163;50.626;12.922;2023-04-07T05:46:03;26.10;;;14.87;;
14167;SDS011;7163;50.626;12.922;2023-04-07T05:51:03;24.90;;;13.50;;
14167;SDS011;7163;50.626;12.922;2023-04-07T05:56:03;29.27;;;14.80;;
14167;SDS011;7163;50.626;12.922;2023-04-07T06:01:04;26.10;;;14.17;;
14167;SDS011;7163;50.626;12.922;2023-04-07T06:06:05;36.30;;;16.33;;
14167;SDS011;7163;50.626;12.922;2023-04-07T06:11:05;30.00;;;15.60;;
14167;SDS011;7163;50.626;12.922;2023-04-07T06:16:06;30.67;;;14.87;;
14167;SDS011;7163;50.626;12.922;2023-04-07T06:21:06;27.13;;;15.23;;
14167;SDS011;7163;50.626;12.922;2023-04-07T06:26:10;26.87;;;14.00;;
14167;SDS011;7163;50.626;12.922;2023-04-07T06:31:11;41.50;;;23.73;;
14167;SDS011;7163;50.626;12.922;2023-04-07T06:36:11;192.40;;;64.17;;
14167;SDS011;7163;50.626;12.922;2023-04-07T06:41:12;189.40;;;66.30;;
14167;SDS011;7163;50.626;12.922;2023-04-07T06:46:16;177.03;;;68.73;;
14167;SDS011;7163;50.626;12.922;2023-04-07T06:51:17;134.17;;;56.73;;
14167;SDS011;7163;50.626;12.922;2023-04-07T06:56:17;96.43;;;41.20;;
14167;SDS011;7163;50.626;12.922;2023-04-07T07:01:18;48.23;;;25.23;;
14167;SDS011;7163;50.626;12.922;2023-04-07T07:06:18;43.50;;;21.30;;
14167;SDS011;7163;50.626;12.922;2023-04-07T07:11:18;34.23;;;17.73;;
14167;SDS011;7163;50.626;12.922;2023-04-07T07:16:19;22.43;;;13.60;;
14167;SDS011;7163;50.626;12.922;2023-04-07T07:21:23;26.03;;;13.43;;
14167;SDS011;7163;50.626;12.922;2023-04-07T07:26:23;24.00;;;12.53;;
14167;SDS011;7163;50.626;12.922;2023-04-07T07:31:25;20.00;;;11.53;;
14167;SDS011;7163;50.626;12.922;2023-04-07T07:36:25;18.47;;;10.37;;
14167;SDS011;7163;50.626;12.922;2023-04-07T07:41:25;15.90;;;9.63;;
14167;SDS011;7163;50.626;12.922;2023-04-07T07:46:26;13.83;;;8.30;;
14167;SDS011;7163;50.626;12.922;2023-04-07T07:51:26;16.63;;;8.70;;
14167;SDS011;7163;50.626;12.922;2023-04-07T07:56:27;20.90;;;11.30;;
14167;SDS011;7163;50.626;12.922;2023-04-07T08:01:27;19.27;;;10.07;;
14167;SDS011;7163;50.626;12.922;2023-04-07T08:06:28;17.23;;;10.17;;
14167;SDS011;7163;50.626;12.922;2023-04-07T08:11:30;18.27;;;11.00;;
14167;SDS011;7163;50.626;12.922;2023-04-07T08:16:30;17.90;;;9.10;;
14167;SDS011;7163;50.626;12.922;2023-04-07T08:21:31;18.57;;;8.93;;
14167;SDS011;7163;50.626;12.922;2023-04-07T08:26:32;17.97;;;9.83;;
14167;SDS011;7163;50.626;12.922;2023-04-07T08:31:32;13.90;;;7.77;;
14167;SDS011;7163;50.626;12.922;2023-04-07T08:36:33;15.17;;;9.43;;
14167;SDS011;7163;50.626;12.922;2023-04-07T08:41:37;12.57;;;8.20;;
14167;SDS011;7163;50.626;12.922;2023-04-07T08:46:41;16.10;;;9.00;;
14167;SDS011;7163;50.626;12.922;2023-04-07T08:51:46;15.70;;;9.03;;
14167;SDS011;7163;50.626;12.922;2023-04-07T08:56:47;14.03;;;8.23;;
14167;SDS011;7163;50.626;12.922;2023-04-07T09:01:47;16.70;;;9.13;;
14167;SDS011;7163;50.626;12.922;2023-04-07T09:06:48;13.00;;;8.93;;
14167;SDS011;7163;50.626;12.922;2023-04-07T09:11:49;14.50;;;9.53;;
14167;SDS011;7163;50.626;12.922;2023-04-07T09:16:50;14.20;;;9.53;;
14167;SDS011;7163;50.626;12.922;2023-04-07T09:21:51;14.63;;;8.87;;
14167;SDS011;7163;50.626;12.922;2023-04-07T09:27:07;13.63;;;9.25;;
14167;SDS011;7163;50.626;12.922;2023-04-07T09:32:09;14.43;;;8.85;;
14167;SDS011;7163;50.626;12.922;2023-04-07T09:37:10;13.40;;;8.88;;
14167;SDS011;7163;50.626;12.922;2023-04-07T09:42:21;12.18;;;8.98;;
14167;SDS011;7163;50.626;12.922;2023-04-07T09:47:25;12.40;;;8.88;;
14167;SDS011;7163;50.626;12.922;2023-04-07T09:53:01;13.95;;;9.77;;
14167;SDS011;7163;50.626;12.922;2023-04-07T09:57:54;11.68;;;8.07;;
14167;SDS011;7163;50.626;12.922;2023-04-07T10:02:55;13.07;;;9.18;;
14167;SDS011;7163;50.626;12.922;2023-04-07T10:07:56;14.85;;;9.38;;
14167;SDS011;7163;50.626;12.922;2023-04-07T10:12:57;12.13;;;8.57;;
14167;SDS011;7163;50.626;12.922;2023-04-07T10:17:58;12.70;;;8.65;;
14167;SDS011;7163;50.626;12.922;2023-04-07T10:23:01;14.80;;;9.40;;
14167;SDS011;7163;50.626;12.922;2023-04-07T10:28:07;13.13;;;9.65;;
14167;SDS011;7163;50.626;12.922;2023-04-07T10:33:08;16.30;;;10.18;;
14167;SDS011;7163;50.626;12.922;2023-04-07T10:38:10;14.57;;;9.88;;
14167;SDS011;7163;50.626;12.922;2023-04-07T10:43:35;14.85;;;10.00;;
14167;SDS011;7163;50.626;12.922;2023-04-07T10:48:36;14.18;;;9.48;;
14167;SDS011;7163;50.626;12.922;2023-04-07T10:53:37;16.25;;;10.15;;
14167;SDS011;7163;50.626;12.922;2023-04-07T10:59:13;15.52;;;10.73;;
14167;SDS011;7163;50.626;12.922;2023-04-07T11:04:14;16.60;;;11.00;;
14167;SDS011;7163;50.626;12.922;2023-04-07T11:09:18;13.00;;;9.27;;
14167;SDS011;7163;50.626;12.922;2023-04-07T11:14:27;15.75;;;10.13;;
14167;SDS011;7163;50.626;12.922;2023-04-07T11:19:29;12.27;;;9.63;;
14167;SDS011;7163;50.626;12.922;2023-04-07T11:24:33;15.60;;;11.00;;
14167;SDS011;7163;50.626;12.922;2023-04-07T11:29:36;16.95;;;11.95;;
14167;SDS011;7163;50.626;12.922;2023-04-07T11:34:37;15.63;;;10.00;;
14167;SDS011;7163;50.626;12.922;2023-04-07T11:39:38;17.97;;;10.87;;
14167;SDS011;7163;50.626;12.922;2023-04-07T11:44:44;16.43;;;11.87;;
14167;SDS011;7163;50.626;12.922;2023-04-07T11:49:45;14.60;;;8.90;;
14167;SDS011;7163;50.626;12.922;2023-04-07T11:54:46;12.20;;;7.30;;
14167;SDS011;7163;50.626;12.922;2023-04-07T11:59:47;11.93;;;7.23;;
14167;SDS011;7163;50.626;12.922;2023-04-07T12:04:54;11.50;;;7.50;;
14167;SDS011;7163;50.626;12.922;2023-04-07T12:09:56;12.82;;;7.70;;
14167;SDS011;7163;50.626;12.922;2023-04-07T12:14:56;14.98;;;9.15;;
14167;SDS011;7163;50.626;12.922;2023-04-07T12:19:57;14.93;;;9.80;;
14167;SDS011;7163;50.626;12.922;2023-04-07T12:24:57;16.30;;;10.07;;
14167;SDS011;7163;50.626;12.922;2023-04-07T12:29:58;13.00;;;7.67;;
14167;SDS011;7163;50.626;12.922;2023-04-07T12:34:58;15.43;;;10.03;;
14167;SDS011;7163;50.626;12.922;2023-04-07T12:39:59;13.87;;;8.93;;
14167;SDS011;7163;50.626;12.922;2023-04-07T12:44:59;19.87;;;11.60;;
14167;SDS011;7163;50.626;12.922;2023-04-07T12:49:59;14.67;;;8.50;;
14167;SDS011;7163;50.626;12.922;2023-04-07T12:55:01;20.60;;;13.00;;
14167;SDS011;7163;50.626;12.922;2023-04-07T13:00:05;13.87;;;9.10;;
14167;SDS011;7163;50.626;12.922;2023-04-07T13:05:06;13.43;;;9.03;;
14167;SDS011;7163;50.626;12.922;2023-04-07T13:10:07;10.77;;;7.50;;
14167;SDS011;7163;50.626;12.922;2023-04-07T13:15:08;47.83;;;37.83;;
14167;SDS011;7163;50.626;12.922;2023-04-07T13:20:08;11.15;;;8.10;;
14167;SDS011;7163;50.626;12.922;2023-04-07T13:25:09;12.05;;;8.05;;
14167;SDS011;7163;50.626;12.922;2023-04-07T13:30:14;11.98;;;7.57;;
14167;SDS011;7163;50.626;12.922;2023-04-07T13:35:18;11.75;;;7.18;;
14167;SDS011;7163;50.626;12.922;2023-04-07T13:40:18;12.27;;;7.20;;
14167;SDS011;7163;50.626;12.922;2023-04-07T13:45:19;8.82;;;6.45;;
14167;SDS011;7163;50.626;12.922;2023-04-07T13:50:19;10.07;;;6.88;;
14167;SDS011;7163;50.626;12.922;2023-04-07T13:55:20;12.05;;;6.07;;
14167;SDS011;7163;50.626;12.922;2023-04-07T14:00:20;11.80;;;7.50;;
14167;SDS011;7163;50.626;12.922;2023-04-07T14:05:24;10.30;;;7.60;;
14167;SDS011;7163;50.626;12.922;2023-04-07T14:10:24;11.98;;;7.90;;
14167;SDS011;7163;50.626;12.922;2023-04-07T14:15:25;14.02;;;9.30;;
14167;SDS011;7163;50.626;12.922;2023-04-07T14:20:26;16.02;;;10.18;;
14167;SDS011;7163;50.626;12.922;2023-04-07T14:25:27;12.45;;;8.18;;
14167;SDS011;7163;50.626;12.922;2023-04-07T14:30:28;11.18;;;7.57;;
14167;SDS011;7163;50.626;12.922;2023-04-07T14:35:29;12.10;;;8.40;;
14167;SDS011;7163;50.626;12.922;2023-04-07T14:40:30;10.50;;;7.90;;
14167;SDS011;7163;50.626;12.922;2023-04-07T14:45:30;11.77;;;7.68;;
14167;SDS011;7163;50.626;12.922;2023-04-07T14:50:32;11.63;;;8.27;;
14167;SDS011;7163;50.626;12.922;2023-04-07T14:55:32;19.33;;;9.68;;
14167;SDS011;7163;50.626;12.922;2023-04-07T15:00:33;14.65;;;8.43;;
14167;SDS011;7163;50.626;12.922;2023-04-07T15:05:34;13.43;;;8.75;;
14167;SDS011;7163;50.626;12.922;2023-04-07T15:10:36;20.98;;;10.63;;
14167;SDS011;7163;50.626;12.922;2023-04-07T15:15:37;12.03;;;8.07;;
14167;SDS011;7163;50.626;12.922;2023-04-07T15:20:38;14.67;;;9.40;;
14167;SDS011;7163;50.626;12.922;2023-04-07T15:25:38;13.53;;;10.27;;
14167;SDS011;7163;50.626;12.922;2023-04-07T15:30:39;13.90;;;8.67;;
14167;SDS011;7163;50.626;12.922;2023-04-07T15:35:40;17.30;;;9.50;;
14167;SDS011;7163;50.626;12.922;2023-04-07T15:40:41;14.77;;;9.00;;
14167;SDS011;7163;50.626;12.922;2023-04-07T15:45:42;14.63;;;9.90;;
14167;SDS011;7163;50.626;12.922;2023-04-07T15:50:43;12.00;;;8.33;;
14167;SDS011;7163;50.626;12.922;2023-04-07T15:55:44;15.27;;;9.50;;
14167;SDS011;7163;50.626;12.922;2023-04-07T16:00:45;15.67;;;9.17;;
14167;SDS011;7163;50.626;12.922;2023-04-07T16:05:45;13.67;;;9.00;;
14167;SDS011;7163;50.626;12.922;2023-04-07T16:10:46;16.03;;;8.83;;
14167;SDS011;7163;50.626;12.922;2023-04-07T16:15:46;14.13;;;8.93;;
14167;SDS011;7163;50.626;12.922;2023-04-07T16:20:47;15.13;;;9.53;;
14167;SDS011;7163;50.626;12.922;2023-04-07T16:25:47;12.63;;;8.33;;
14167;SDS011;7163;50.626;12.922;2023-04-07T16:30:48;16.37;;;8.53;;
14167;SDS011;7163;50.626;12.922;2023-04-07T16:35:49;20.17;;;11.27;;
14167;SDS011;7163;50.626;12.922;2023-04-07T16:40:52;12.43;;;8.10;;
14167;SDS011;7163;50.626;12.922;2023-04-07T16:45:53;22.53;;;10.33;;
14167;SDS011;7163;50.626;12.922;2023-04-07T16:50:54;37.70;;;17.20;;
14167;SDS011;7163;50.626;12.922;2023-04-07T16:55:54;15.67;;;8.37;;
14167;SDS011;7163;50.626;12.922;2023-04-07T17:00:55;14.87;;;8.07;;
14167;SDS011;7163;50.626;12.922;2023-04-07T17:05:55;12.83;;;7.33;;
14167;SDS011;7163;50.626;12.922;2023-04-07T17:10:55;14.07;;;8.43;;
14167;SDS011;7163;50.626;12.922;2023-04-07T17:15:56;13.33;;;8.57;;
14167;SDS011;7163;50.626;12.922;2023-04-07T17:20:56;15.60;;;9.10;;
14167;SDS011;7163;50.626;12.922;2023-04-07T17:25:57;16.60;;;9.43;;
14167;SDS011;7163;50.626;12.922;2023-04-07T17:30:57;19.83;;;11.67;;
14167;SDS011;7163;50.626;12.922;2023-04-07T17:36:01;26.37;;;14.77;;
14167;SDS011;7163;50.626;12.922;2023-04-07T17:41:02;26.00;;;14.20;;
14167;SDS011;7163;50.626;12.922;2023-04-07T17:46:03;22.10;;;10.67;;
14167;SDS011;7163;50.626;12.922;2023-04-07T17:51:03;19.23;;;10.93;;
14167;SDS011;7163;50.626;12.922;2023-04-07T17:56:04;14.13;;;9.73;;
14167;SDS011;7163;50.626;12.922;2023-04-07T18:01:06;17.63;;;10.40;;
14167;SDS011;7163;50.626;12.922;2023-04-07T18:06:08;18.63;;;10.60;;
14167;SDS011;7163;50.626;12.922;2023-04-07T18:11:08;15.07;;;9.83;;
14167;SDS011;7163;50.626;12.922;2023-04-07T18:16:09;21.17;;;11.57;;
14167;SDS011;7163;50.626;12.922;2023-04-07T18:21:10;20.23;;;10.80;;
14167;SDS011;7163;50.626;12.922;2023-04-07T18:26:11;14.60;;;9.03;;
14167;SDS011;7163;50.626;12.922;2023-04-07T18:31:11;20.10;;;10.70;;
14167;SDS011;7163;50.626;12.922;2023-04-07T18:36:12;24.67;;;12.07;;
14167;SDS011;7163;50.626;12.922;2023-04-07T18:41:13;19.83;;;12.10;;
14167;SDS011;7163;50.626;12.922;2023-04-07T18:46:13;21.97;;;12.27;;
14167;SDS011;7163;50.626;12.922;2023-04-07T18:51:14;30.00;;;13.67;;
14167;SDS011;7163;50.626;12.922;2023-04-07T18:56:15;21.80;;;12.37;;
14167;SDS011;7163;50.626;12.922;2023-04-07T19:01:16;23.93;;;13.17;;
14167;SDS011;7163;50.626;12.922;2023-04-07T19:06:17;27.27;;;15.83;;
14167;SDS011;7163;50.626;12.922;2023-04-07T19:11:17;23.03;;;14.27;;
14167;SDS011;7163;50.626;12.922;2023-04-07T19:16:18;24.10;;;11.03;;
14167;SDS011;7163;50.626;12.922;2023-04-07T19:21:20;17.50;;;10.63;;
14167;SDS011;7163;50.626;12.922;2023-04-07T19:26:21;19.47;;;9.83;;
14167;SDS011;7163;50.626;12.922;2023-04-07T19:31:22;20.20;;;10.17;;
14167;SDS011;7163;50.626;12.922;2023-04-07T19:36:23;17.73;;;11.23;;
14167;SDS011;7163;50.626;12.922;2023-04-07T19:41:24;17.40;;;10.03;;
14167;SDS011;7163;50.626;12.922;2023-04-07T19:46:24;17.47;;;10.53;;
14167;SDS011;7163;50.626;12.922;2023-04-07T19:51:24;15.67;;;9.63;;
14167;SDS011;7163;50.626;12.922;2023-04-07T19:56:33;19.17;;;10.77;;
14167;SDS011;7163;50.626;12.922;2023-04-07T20:01:33;18.30;;;11.57;;
14167;SDS011;7163;50.626;12.922;2023-04-07T20:06:34;22.20;;;11.57;;
14167;SDS011;7163;50.626;12.922;2023-04-07T20:11:37;17.10;;;10.23;;
14167;SDS011;7163;50.626;12.922;2023-04-07T20:16:38;16.67;;;10.07;;
14167;SDS011;7163;50.626;12.922;2023-04-07T20:21:39;18.07;;;10.37;;
14167;SDS011;7163;50.626;12.922;2023-04-07T20:26:40;21.00;;;11.60;;
14167;SDS011;7163;50.626;12.922;2023-04-07T20:31:40;19.77;;;11.47;;
14167;SDS011;7163;50.626;12.922;2023-04-07T20:36:41;18.77;;;10.90;;
14167;SDS011;7163;50.626;12.922;2023-04-07T20:41:41;19.80;;;12.70;;
14167;SDS011;7163;50.626;12.922;2023-04-07T20:46:44;20.60;;;13.17;;
14167;SDS011;7163;50.626;12.922;2023-04-07T20:51:47;19.30;;;11.90;;
14167;SDS011;7163;50.626;12.922;2023-04-07T20:56:47;19.93;;;13.20;;
14167;SDS011;7163;50.626;12.922;2023-04-07T21:01:48;21.07;;;13.80;;
14167;SDS011;7163;50.626;12.922;2023-04-07T21:06:48;24.27;;;13.57;;
14167;SDS011;7163;50.626;12.922;2023-04-07T21:11:49;20.90;;;12.50;;
14167;SDS011;7163;50.626;12.922;2023-04-07T21:16:49;25.07;;;13.77;;
14167;SDS011;7163;50.626;12.922;2023-04-07T21:21:50;20.43;;;12.97;;
14167;SDS011;7163;50.626;12.922;2023-04-07T21:26:51;23.93;;;13.80;;
14167;SDS011;7163;50.626;12.922;2023-04-07T21:31:52;24.10;;;14.77;;
14167;SDS011;7163;50.626;12.922;2023-04-07T21:36:53;25.60;;;15.27;;
14167;SDS011;7163;50.626;12.922;2023-04-07T21:41:53;25.20;;;15.60;;
14167;SDS011;7163;50.626;12.922;2023-04-07T21:46:54;26.10;;;15.30;;
14167;SDS011;7163;50.626;12.922;2023-04-07T21:51:54;24.03;;;14.33;;
14167;SDS011;7163;50.626;12.922;2023-04-07T21:56:54;25.10;;;15.27;;
14167;SDS011;7163;50.626;12.922;2023-04-07T22:01:56;21.83;;;13.97;;
14167;SDS011;7163;50.626;12.922;2023-04-07T22:06:57;23.30;;;14.40;;
14167;SDS011;7163;50.626;12.922;2023-04-07T22:11:58;23.33;;;12.73;;
14167;SDS011;7163;50.626;12.922;2023-04-07T22:16:58;19.33;;;11.37;;
14167;SDS011;7163;50.626;12.922;2023-04-07T22:21:59;19.83;;;10.90;;
14167;SDS011;7163;50.626;12.922;2023-04-07T22:26:59;16.53;;;9.50;;
14167;SDS011;7163;50.626;12.922;2023-04-07T22:32:01;15.27;;;9.77;;
14167;SDS011;7163;50.626;12.922;2023-04-07T22:37:01;13.23;;;7.90;;
14167;SDS011;7163;50.626;12.922;2023-04-07T22:42:01;14.07;;;8.70;;
14167;SDS011;7163;50.626;12.922;2023-04-07T22:47:02;14.47;;;8.83;;
14167;SDS011;7163;50.626;12.922;2023-04-07T22:52:02;14.20;;;8.57;;
14167;SDS011;7163;50.626;12.922;2023-04-07T22:57:03;14.10;;;9.33;;
14167;SDS011;7163;50.626;12.922;2023-04-07T23:02:03;15.53;;;8.63;;
14167;SDS011;7163;50.626;12.922;2023-04-07T23:07:05;12.70;;;8.20;;
14167;SDS011;7163;50.626;12.922;2023-04-07T23:12:05;15.70;;;8.93;;
14167;SDS011;7163;50.626;12.922;2023-04-07T23:17:06;19.90;;;9.60;;
14167;SDS011;7163;50.626;12.922;2023-04-07T23:22:07;16.57;;;10.07;;
14167;SDS011;7163;50.626;12.922;2023-04-07T23:27:07;18.40;;;10.43;;
14167;SDS011;7163;50.626;12.922;2023-04-07T23:32:08;19.67;;;11.17;;
14167;SDS011;7163;50.626;12.922;2023-04-07T23:37:08;18.27;;;10.80;;
14167;SDS011;7163;50.626;12.922;2023-04-07T23:42:08;21.67;;;11.60;;
14167;SDS011;7163;50.626;12.922;2023-04-07T23:47:09;17.50;;;11.67;;
14167;SDS011;7163;50.626;12.922;2023-04-07T23:52:10;22.27;;;12.57;;
14167;SDS011;7163;50.626;12.922;2023-04-07T23:57:11;24.77;;;14.20;;
